Time;durP1;ratioP1;P1;durP2;ratioP2;P2;SDS_P1;SDS_P2;PMS_P1;PMS_P2;Temp;Humidity;BMP_temperature;BMP_pressure;BME280_temperature;BME280_humidity;BME280_pressure;Samples;Min_cycle;Max_cycle;Signal;HPM_P1;HPM_P2
2023/05/11 00:00:36;;;;;;;52.00;15.13;;;;;;;17.90;52.76;93066.88;5010045;28;20043;-88
2023/05/11 00:03:02;;;;;;;53.38;17.25;;;;;;;17.92;52.87;93060.91;5010848;28;20045;-88
2023/05/11 00:05:27;;;;;;;57.50;18.95;;;;;;;17.92;52.42;93066.38;5008445;28;20443;-88
2023/05/11 00:07:52;;;;;;;49.58;17.42;;;;;;;17.91;52.54;93070.34;5026996;28;20037;-87
2023/05/11 00:10:21;;;;;;;58.13;17.55;;;;;;;17.89;52.61;93067.41;5009928;28;20059;-87
2023/05/11 00:12:46;;;;;;;46.08;16.77;;;;;;;17.91;52.80;93064.88;5010037;28;20041;-88
2023/05/11 00:15:11;;;;;;;48.58;16.33;;;;;;;17.97;52.70;93065.56;5002361;28;20052;-88
2023/05/11 00:17:37;;;;;;;49.55;16.27;;;;;;;17.93;52.47;93060.38;5005910;28;20037;-88
2023/05/11 00:20:03;;;;;;;45.40;15.07;;;;;;;17.93;52.81;93062.38;5029167;28;20130;-87
2023/05/11 00:22:28;;;;;;;48.47;14.57;;;;;;;17.90;52.56;93057.94;5029924;28;20036;-88
2023/05/11 00:24:54;;;;;;;52.50;16.88;;;;;;;17.90;52.37;93057.94;5045792;28;20041;-87
2023/05/11 00:27:19;;;;;;;46.85;16.25;;;;;;;17.90;52.73;93055.94;5028568;28;20043;-88
2023/05/11 00:29:45;;;;;;;52.92;16.77;;;;;;;17.90;52.57;93052.47;4993311;28;20033;-88
2023/05/11 00:32:10;;;;;;;59.83;16.67;;;;;;;17.94;52.50;93048.19;5009523;28;20037;-88
2023/05/11 00:34:36;;;;;;;44.50;14.95;;;;;;;17.93;52.69;93046.72;4993041;28;20076;-88
2023/05/11 00:37:01;;;;;;;55.13;16.20;;;;;;;17.93;52.55;93041.25;4993847;28;20038;-88
2023/05/11 00:39:27;;;;;;;53.47;16.02;;;;;;;17.92;52.66;93050.69;5011191;28;20041;-88
2023/05/11 00:41:52;;;;;;;53.72;16.77;;;;;;;17.90;52.21;93053.22;5018174;28;20052;-88
2023/05/11 00:44:21;;;;;;;54.45;14.73;;;;;;;17.93;52.62;93043.97;5009365;28;20538;-88
2023/05/11 00:46:46;;;;;;;46.65;14.90;;;;;;;17.91;52.80;93053.94;5025766;28;20045;-88
2023/05/11 00:49:15;;;;;;;49.28;15.15;;;;;;;17.93;52.83;93056.91;5024861;28;20034;-88
2023/05/11 00:51:42;;;;;;;42.53;14.10;;;;;;;17.92;52.49;93063.63;5010099;28;20053;-88
2023/05/11 00:54:13;;;;;;;52.25;14.52;;;;;;;17.94;52.22;93050.19;5025616;28;20052;-88
2023/05/11 00:56:39;;;;;;;50.97;15.90;;;;;;;17.90;52.47;93055.94;5009718;28;20049;-88
2023/05/11 00:59:04;;;;;;;46.58;14.57;;;;;;;17.88;52.80;93052.25;4989567;28;20108;-88
2023/05/11 01:01:30;;;;;;;54.58;15.30;;;;;;;17.90;52.22;93047.00;5009032;28;20046;-88
2023/05/11 01:03:56;;;;;;;41.78;14.68;;;;;;;17.90;52.36;93050.47;4992565;28;20041;-88
2023/05/11 01:06:30;;;;;;;48.55;16.17;;;;;;;17.89;52.37;93042.78;4991877;28;20044;-88
2023/05/11 01:09:17;;;;;;;39.00;13.82;;;;;;;17.91;52.47;93060.16;5003472;28;20141;-88
2023/05/11 01:11:48;;;;;;;46.00;14.82;;;;;;;17.90;52.47;93052.47;5030853;28;20033;-88
2023/05/11 01:14:22;;;;;;;46.78;14.73;;;;;;;17.92;52.69;93047.97;5001991;28;20072;-88
2023/05/11 01:16:48;;;;;;;45.15;15.45;;;;;;;17.89;52.17;93048.25;5008949;28;20052;-88
2023/05/11 01:19:38;;;;;;;44.90;13.25;;;;;;;17.89;52.44;93040.78;5002537;28;20052;-88
2023/05/11 01:22:08;;;;;;;50.85;14.18;;;;;;;17.93;52.23;93043.25;5030538;28;20037;-88
2023/05/11 01:25:00;;;;;;;46.38;14.25;;;;;;;17.91;52.42;93059.41;5028873;28;20432;-88
2023/05/11 01:27:30;;;;;;;42.08;14.32;;;;;;;17.90;52.25;93060.69;5044482;28;20041;-88
2023/05/11 01:30:15;;;;;;;50.22;14.68;;;;;;;17.89;52.18;93053.72;5019919;28;20094;-88
2023/05/11 01:32:40;;;;;;;35.92;12.50;;;;;;;17.90;52.24;93053.22;5045046;28;20351;-88
2023/05/11 01:35:19;;;;;;;40.03;13.38;;;;;;;17.87;52.31;93056.97;5011668;28;20041;-88
2023/05/11 01:37:57;;;;;;;35.40;12.55;;;;;;;17.90;52.36;93063.41;5028810;28;20036;-88
2023/05/11 01:40:24;;;;;;;37.42;13.00;;;;;;;17.90;52.23;93055.19;4995158;28;20046;-88
2023/05/11 01:42:53;;;;;;;36.72;13.23;;;;;;;17.88;52.16;93061.19;4989110;28;20515;-88
2023/05/11 01:45:19;;;;;;;37.88;13.07;;;;;;;17.85;52.19;93064.94;5024576;28;20045;-88
2023/05/11 01:47:44;;;;;;;43.83;14.68;;;;;;;17.89;52.24;93064.66;5005812;28;20041;-88
2023/05/11 01:50:10;;;;;;;44.80;14.52;;;;;;;17.88;52.26;93050.25;5013462;28;20033;-88
2023/05/11 01:52:35;;;;;;;36.75;12.40;;;;;;;17.91;52.14;93051.97;5011603;28;20049;-88
2023/05/11 01:55:02;;;;;;;35.75;13.27;;;;;;;17.88;52.05;93057.72;5031487;28;20037;-88
2023/05/11 01:57:27;;;;;;;40.28;12.38;;;;;;;17.89;52.52;93054.47;5031876;28;20500;-88
2023/05/11 01:59:53;;;;;;;40.60;13.18;;;;;;;17.90;52.18;93049.75;5023563;28;20060;-88
2023/05/11 02:02:20;;;;;;;34.75;13.25;;;;;;;17.91;51.84;93057.44;5025980;28;20041;-88
2023/05/11 02:04:45;;;;;;;40.03;12.35;;;;;;;17.90;51.98;93060.69;5012542;28;20472;-88
2023/05/11 02:07:12;;;;;;;34.88;13.23;;;;;;;17.91;52.16;93053.94;5011213;28;20049;-88
2023/05/11 02:09:38;;;;;;;37.45;12.60;;;;;;;17.93;51.95;93054.19;5024540;28;20513;-88
2023/05/11 02:12:04;;;;;;;40.38;12.80;;;;;;;17.87;51.91;93056.97;5048438;28;20055;-88
2023/05/11 02:14:32;;;;;;;34.10;12.43;;;;;;;17.90;52.34;93055.94;5014406;28;20403;-88
2023/05/11 02:16:58;;;;;;;32.10;12.52;;;;;;;17.87;52.30;93048.03;5013660;28;20041;-88
2023/05/11 02:19:23;;;;;;;35.28;11.50;;;;;;;17.90;52.17;93055.19;5013979;28;20048;-88
2023/05/11 02:21:49;;;;;;;42.35;12.77;;;;;;;17.86;52.27;93047.28;5012354;28;20034;-88
2023/05/11 02:24:14;;;;;;;32.80;11.73;;;;;;;17.85;51.58;93042.34;4994995;28;20045;-88
2023/05/11 02:26:40;;;;;;;42.38;11.50;;;;;;;17.85;51.91;93056.75;5012216;28;20045;-88
2023/05/11 02:29:05;;;;;;;28.83;11.10;;;;;;;17.86;52.14;93055.50;5011795;28;20046;-88
2023/05/11 02:31:31;;;;;;;36.72;11.60;;;;;;;17.89;52.23;93051.72;4994165;28;20065;-88
2023/05/11 02:34:08;;;;;;;36.75;11.95;;;;;;;17.87;52.18;93056.97;4996265;28;20396;-88
2023/05/11 02:36:34;;;;;;;37.50;12.50;;;;;;;17.87;51.83;93053.50;5012967;28;20046;-88
2023/05/11 02:39:05;;;;;;;35.20;13.10;;;;;;;17.89;52.10;93053.72;5000556;28;20033;-88
2023/05/11 02:41:31;;;;;;;32.30;11.35;;;;;;;17.91;52.19;93054.69;5030706;28;20507;-88
2023/05/11 02:43:59;;;;;;;32.15;11.77;;;;;;;17.89;51.79;93048.25;5000179;28;20029;-88
2023/05/11 02:46:26;;;;;;;36.08;11.45;;;;;;;17.89;52.13;93051.00;5002478;28;20041;-88
2023/05/11 02:48:53;;;;;;;35.97;12.32;;;;;;;17.86;51.75;93049.28;5011474;28;20123;-88
2023/05/11 02:51:21;;;;;;;30.85;11.50;;;;;;;17.83;52.06;93045.59;5011065;28;20042;-88
2023/05/11 02:53:46;;;;;;;33.92;11.02;;;;;;;17.89;51.89;93057.19;5011304;28;20045;-88
2023/05/11 02:56:12;;;;;;;30.30;10.45;;;;;;;17.89;51.82;93046.25;5011107;28;20030;-88
2023/05/11 02:58:37;;;;;;;31.63;11.30;;;;;;;17.88;51.70;93057.72;5013072;28;20060;-88
2023/05/11 03:01:06;;;;;;;32.33;11.48;;;;;;;17.88;52.36;93046.78;4986168;28;20053;-88
2023/05/11 03:03:31;;;;;;;37.17;11.38;;;;;;;17.84;51.81;93055.25;4990121;28;20045;-88
2023/05/11 03:05:56;;;;;;;28.45;10.68;;;;;;;17.88;52.10;93049.50;4974174;28;20042;-88
2023/05/11 03:08:22;;;;;;;28.33;9.32;;;;;;;17.95;52.19;93054.41;4957304;28;20274;-88
2023/05/11 03:10:47;;;;;;;35.13;11.65;;;;;;;17.89;52.01;93053.72;4978939;28;20045;-88
2023/05/11 03:13:12;;;;;;;28.88;9.60;;;;;;;17.88;51.69;93052.25;4974563;28;20032;-88
2023/05/11 03:15:38;;;;;;;29.45;10.48;;;;;;;17.91;51.79;93049.22;4984367;28;20045;-88
2023/05/11 03:18:04;;;;;;;43.00;15.23;;;;;;;17.88;51.91;93052.97;4957442;28;20045;-88
2023/05/11 03:20:30;;;;;;;28.42;10.32;;;;;;;17.84;51.85;93038.84;4973279;28;20503;-88
2023/05/11 03:22:55;;;;;;;32.90;9.82;;;;;;;17.88;51.92;93052.97;4977280;28;20041;-88
2023/05/11 03:25:21;;;;;;;32.90;10.93;;;;;;;17.87;51.94;93048.03;5007911;28;20092;-88
2023/05/11 03:27:46;;;;;;;32.05;11.05;;;;;;;17.88;51.64;93042.03;4977526;28;20038;-87
2023/05/11 03:30:12;;;;;;;41.08;15.05;;;;;;;17.89;51.45;93053.72;4942251;28;20478;-88
2023/05/11 03:32:38;;;;;;;32.88;11.38;;;;;;;17.89;51.70;93051.00;4985492;28;20045;-89
2023/05/11 03:35:05;;;;;;;36.08;11.65;;;;;;;17.89;51.66;93048.25;4985968;28;20060;-87
2023/05/11 03:37:30;;;;;;;57.75;32.03;;;;;;;18.05;51.45;93060.97;4992973;28;20037;-88
2023/05/11 03:39:57;;;;;;;170.70;116.90;;;;;;;18.01;51.54;93055.78;5021520;28;20049;-87
2023/05/11 03:42:24;;;;;;;34.35;13.48;;;;;;;18.17;51.72;93058.84;5013763;28;20069;-85
2023/05/11 03:44:51;;;;;;;98.90;49.17;;;;;;;18.15;51.63;93048.41;5011057;28;20480;-89
2023/05/11 03:47:17;;;;;;;42.78;16.08;;;;;;;18.14;51.25;93053.16;5010543;28;20488;-91
2023/05/11 03:49:42;;;;;;;60.72;20.92;;;;;;;18.08;51.38;93054.47;5010000;28;20109;-88
2023/05/11 03:52:08;;;;;;;42.40;12.50;;;;;;;18.03;51.32;93049.81;5009802;28;20049;-87
2023/05/11 03:54:33;;;;;;;54.70;14.50;;;;;;;18.09;51.29;93050.47;5007294;28;20095;-87
2023/05/11 03:56:59;;;;;;;35.08;11.60;;;;;;;18.04;50.87;93049.28;4991148;28;20052;-88
2023/05/11 03:59:25;;;;;;;29.08;10.43;;;;;;;17.98;51.38;93042.41;5014320;28;20056;-90
2023/05/11 04:01:52;;;;;;;21.02;10.73;;;;;;;17.85;51.25;93048.53;5012927;28;20037;-87
2023/05/11 04:04:20;;;;;;;73.40;30.00;;;;;;;17.79;51.64;93048.59;4994838;28;20064;-89
2023/05/11 04:06:45;;;;;;;80.53;29.98;;;;;;;17.92;51.19;93049.97;5019140;28;20068;-89
2023/05/11 04:09:11;;;;;;;153.80;50.90;;;;;;;17.88;51.41;93042.03;5039520;28;20041;-88
2023/05/11 04:11:37;;;;;;;167.85;56.17;;;;;;;17.87;51.46;93040.56;5042996;28;20044;-88
2023/05/11 04:14:02;;;;;;;206.35;58.15;;;;;;;17.86;51.66;93041.81;5030489;28;20040;-89
2023/05/11 04:16:28;;;;;;;183.18;63.35;;;;;;;17.88;51.58;93044.78;5037459;28;20049;-88
2023/05/11 04:18:53;;;;;;;154.68;55.25;;;;;;;17.93;51.63;93037.78;4993451;28;20103;-90
2023/05/11 04:21:30;;;;;;;159.50;59.63;;;;;;;17.94;51.47;93044.72;5017473;28;20037;-93
2023/05/11 04:23:55;;;;;;;165.60;63.50;;;;;;;18.04;51.58;93043.81;5011793;28;20029;-87
2023/05/11 04:26:21;;;;;;;216.57;81.97;;;;;;;18.02;51.39;93035.38;5028846;28;20034;-89
2023/05/11 04:28:47;;;;;;;207.93;85.47;;;;;;;17.95;51.64;93043.47;4994866;28;20102;-90
2023/05/11 04:31:13;;;;;;;202.90;98.80;;;;;;;17.97;51.23;93046.44;5005160;28;20037;-89
2023/05/11 04:33:38;;;;;;;194.43;90.93;;;;;;;17.90;51.98;93049.75;5002676;28;20042;-88
2023/05/11 04:36:04;;;;;;;207.13;98.00;;;;;;;17.90;51.61;93049.75;4994094;28;20045;-88
2023/05/11 04:38:30;;;;;;;173.05;84.32;;;;;;;17.95;51.72;93041.47;4965881;28;20924;-89
2023/05/11 04:40:56;;;;;;;162.38;77.05;;;;;;;17.99;51.89;93052.09;5004244;28;20071;-88
2023/05/11 04:43:22;;;;;;;221.20;99.22;;;;;;;17.95;51.53;93049.69;4973484;28;20049;-88
2023/05/11 04:45:50;;;;;;;220.95;109.15;;;;;;;17.98;51.78;93051.34;4984925;28;20049;-89
2023/05/11 04:48:16;;;;;;;216.55;102.43;;;;;;;18.00;51.63;93048.09;4959673;28;20069;-91
2023/05/11 04:50:41;;;;;;;214.75;102.80;;;;;;;18.03;51.71;93060.75;4990356;28;20080;-89
2023/05/11 04:53:08;;;;;;;243.32;119.75;;;;;;;18.03;51.52;93052.53;4987682;28;20167;-92
2023/05/11 04:55:33;;;;;;;202.82;97.78;;;;;;;18.04;52.06;93062.22;4984972;28;20496;-92
2023/05/11 04:57:59;;;;;;;246.32;105.10;;;;;;;17.97;51.63;93055.34;4988400;28;20048;-90
2023/05/11 05:00:27;;;;;;;230.05;108.63;;;;;;;17.95;51.60;93057.88;4990918;28;20183;-89
2023/05/11 05:02:53;;;;;;;199.23;103.70;;;;;;;17.95;51.63;93049.69;4993294;28;20041;-89
2023/05/11 05:05:19;;;;;;;182.82;95.50;;;;;;;18.02;51.35;93059.28;5014883;28;20420;-90
2023/05/11 05:07:45;;;;;;;249.40;122.35;;;;;;;18.02;51.42;93062.00;4995412;28;20045;-90
2023/05/11 05:10:11;;;;;;;214.48;109.95;;;;;;;18.10;51.41;93052.69;4987763;28;20057;-89
2023/05/11 05:12:38;;;;;;;312.98;136.45;;;;;;;18.06;51.42;93052.25;5001882;28;20862;-88
2023/05/11 05:15:06;;;;;;;401.75;157.98;;;;;;;17.99;51.48;93052.84;4996446;28;20488;-89
2023/05/11 05:17:31;;;;;;;267.92;121.68;;;;;;;18.12;51.79;93052.19;5027010;28;20088;-89
2023/05/11 05:19:57;;;;;;;323.35;161.48;;;;;;;18.17;51.34;93059.59;4997827;28;20029;-88
2023/05/11 05:22:23;;;;;;;315.85;167.75;;;;;;;18.07;51.64;93063.94;5038772;28;20048;-88
2023/05/11 05:24:48;;;;;;;326.58;177.43;;;;;;;18.05;51.53;93053.50;5003448;28;20053;-89
2023/05/11 05:27:15;;;;;;;420.55;212.00;;;;;;;18.12;51.73;93063.13;5007841;28;20042;-87
2023/05/11 05:29:40;;;;;;;365.15;197.45;;;;;;;18.10;51.02;93065.63;5017412;28;20038;-88
2023/05/11 05:32:06;;;;;;;337.85;183.13;;;;;;;18.11;51.27;93067.84;5012078;28;20034;-88
2023/05/11 05:34:31;;;;;;;332.08;180.98;;;;;;;18.13;51.50;93064.59;5014530;28;20076;-87
2023/05/11 05:36:57;;;;;;;369.35;194.10;;;;;;;18.05;51.42;93063.72;5010721;28;20041;-87
2023/05/11 05:39:23;;;;;;;524.90;209.18;;;;;;;18.09;51.68;93070.38;5011423;28;20053;-89
2023/05/11 05:41:48;;;;;;;320.65;163.70;;;;;;;18.11;51.34;93062.38;5002901;28;20045;-87
2023/05/11 05:44:14;;;;;;;319.58;170.95;;;;;;;18.16;51.28;93063.59;5009774;28;20037;-88
2023/05/11 05:46:39;;;;;;;338.52;186.98;;;;;;;18.11;51.26;93065.13;5026680;28;20034;-89
2023/05/11 05:49:04;;;;;;;330.02;180.15;;;;;;;18.09;51.42;93073.09;5007369;28;20026;-88
2023/05/11 05:51:30;;;;;;;331.80;174.38;;;;;;;18.19;51.42;93073.47;5019891;28;20049;-90
2023/05/11 05:53:55;;;;;;;342.45;183.05;;;;;;;18.17;51.43;93080.72;5014945;28;20134;-88
2023/05/11 05:56:21;;;;;;;346.35;195.63;;;;;;;18.14;51.50;93063.34;5027292;28;20092;-89
2023/05/11 05:58:47;;;;;;;344.92;175.60;;;;;;;18.15;51.38;93076.53;5017922;28;20238;-86
2023/05/11 06:01:14;;;;;;;350.70;186.43;;;;;;;18.21;51.66;93081.91;5026145;28;20038;-88
2023/05/11 06:03:39;;;;;;;353.55;200.13;;;;;;;18.18;51.05;93082.22;4993523;28;20045;-89
2023/05/11 06:06:05;;;;;;;307.50;164.85;;;;;;;18.20;51.49;93082.41;5015375;28;20041;-88
2023/05/11 06:08:31;;;;;;;384.40;210.93;;;;;;;18.27;51.24;93081.84;5011555;28;20041;-90
2023/05/11 06:10:57;;;;;;;349.80;201.63;;;;;;;18.19;51.38;93089.88;4992541;28;20045;-88
2023/05/11 06:13:23;;;;;;;326.15;197.68;;;;;;;18.26;51.81;93085.81;5008242;28;20514;-91
2023/05/11 06:15:49;;;;;;;283.73;161.05;;;;;;;18.25;51.83;93087.81;5004396;28;20060;-89
2023/05/11 06:18:14;;;;;;;301.90;182.10;;;;;;;18.22;50.94;93097.06;5007538;28;20038;-89
2023/05/11 06:20:40;;;;;;;324.20;188.55;;;;;;;18.30;51.32;93091.75;4991527;28;20041;-89
2023/05/11 06:23:05;;;;;;;311.00;183.40;;;;;;;18.31;51.63;93087.75;5017833;28;20034;-89
2023/05/11 06:25:34;;;;;;;365.05;196.57;;;;;;;18.29;51.67;93095.72;5019858;28;20163;-89
2023/05/11 06:28:00;;;;;;;366.73;195.55;;;;;;;18.30;50.95;93097.22;5008239;28;20056;-87
2023/05/11 06:30:25;;;;;;;331.85;195.25;;;;;;;18.26;50.99;93089.31;5023200;28;20042;-87
2023/05/11 06:32:51;;;;;;;290.23;169.32;;;;;;;18.35;51.78;93099.88;5013898;28;20044;-87
2023/05/11 06:35:16;;;;;;;377.50;209.75;;;;;;;18.26;50.97;93094.78;5000542;28;20041;-88
2023/05/11 06:37:48;;;;;;;295.70;161.57;;;;;;;18.28;51.51;93097.00;5029394;28;20042;-91
2023/05/11 06:40:15;;;;;;;326.85;185.80;;;;;;;18.29;51.54;93106.69;5032385;28;20030;-88
2023/05/11 06:42:41;;;;;;;281.33;166.20;;;;;;;18.28;51.43;93097.72;5024487;28;20041;-88
2023/05/11 06:45:07;;;;;;;330.75;186.43;;;;;;;18.30;51.71;93102.69;5021444;28;20037;-86
2023/05/11 06:47:32;;;;;;;319.65;181.95;;;;;;;18.29;51.46;93107.41;4997769;28;20045;-88
2023/05/11 06:49:58;;;;;;;370.52;210.98;;;;;;;18.31;51.41;93093.22;5001764;28;20128;-88
2023/05/11 06:52:23;;;;;;;346.30;187.68;;;;;;;18.32;51.53;93094.72;4994504;28;20046;-90
2023/05/11 06:54:49;;;;;;;332.73;179.23;;;;;;;18.31;51.55;93101.44;4994880;28;20087;-87
2023/05/11 06:57:14;;;;;;;396.38;229.55;;;;;;;18.34;50.74;93100.41;5025651;28;20542;-86
2023/05/11 06:59:41;;;;;;;394.75;225.35;;;;;;;18.27;51.11;93103.72;4997483;28;20175;-89
2023/05/11 07:02:06;;;;;;;367.13;209.82;;;;;;;18.28;51.36;93100.47;5033310;28;20045;-89
2023/05/11 07:04:32;;;;;;;345.35;190.75;;;;;;;18.37;50.98;93093.91;5015264;28;20041;-88
2023/05/11 07:06:57;;;;;;;357.98;197.82;;;;;;;18.33;51.13;93096.19;5029442;28;20116;-88
2023/05/11 07:09:23;;;;;;;318.10;188.95;;;;;;;18.37;51.54;93094.63;5001533;28;20094;-89
2023/05/11 07:11:50;;;;;;;360.15;203.52;;;;;;;18.42;50.84;93091.06;5014129;28;20040;-91
2023/05/11 07:14:15;;;;;;;316.55;175.85;;;;;;;18.41;51.14;93092.31;5042952;28;20423;-90
2023/05/11 07:16:41;;;;;;;307.70;155.65;;;;;;;18.38;51.31;93095.38;5018420;28;20037;-89
2023/05/11 07:19:09;;;;;;;317.70;167.07;;;;;;;18.36;51.12;93087.69;5001159;28;20041;-89
2023/05/11 07:21:35;;;;;;;384.48;192.45;;;;;;;18.34;51.26;93094.94;4999905;28;20139;-89
2023/05/11 07:24:00;;;;;;;354.48;192.40;;;;;;;18.35;51.31;93097.16;5013658;28;20037;-86
2023/05/11 07:26:26;;;;;;;312.42;166.27;;;;;;;18.42;52.04;93095.81;5010117;28;20458;-92
2023/05/11 07:28:52;;;;;;;341.70;189.95;;;;;;;18.47;51.58;93095.72;5000441;28;20510;-90
2023/05/11 07:31:18;;;;;;;345.60;193.63;;;;;;;18.41;51.61;93095.06;5043330;28;20045;-88
2023/05/11 07:33:43;;;;;;;364.27;199.30;;;;;;;18.38;50.85;93095.38;5034064;28;20094;-89
2023/05/11 07:36:08;;;;;;;288.33;159.52;;;;;;;18.43;51.45;93087.06;5005220;28;20049;-90
2023/05/11 07:38:35;;;;;;;410.88;196.32;;;;;;;18.40;51.59;93096.31;5000847;28;20033;-89
2023/05/11 07:41:00;;;;;;;387.52;190.07;;;;;;;18.45;51.54;93092.78;5031086;28;20136;-89
2023/05/11 07:43:26;;;;;;;325.40;166.27;;;;;;;18.42;51.60;93096.53;5015317;28;20531;-90
2023/05/11 07:45:52;;;;;;;282.95;152.32;;;;;;;18.49;51.28;93087.00;5010162;28;20044;-90
2023/05/11 07:48:18;;;;;;;296.30;153.90;;;;;;;18.48;51.49;93091.00;5002754;28;20040;-87
2023/05/11 07:50:43;;;;;;;290.00;158.02;;;;;;;18.43;51.33;93092.53;5038687;28;20052;-90
2023/05/11 07:53:09;;;;;;;270.88;149.88;;;;;;;18.44;51.34;93093.28;5014545;28;20982;-86
2023/05/11 07:55:34;;;;;;;311.73;170.13;;;;;;;18.47;51.13;93095.72;4996937;28;20033;-86
2023/05/11 07:58:00;;;;;;;266.60;150.20;;;;;;;18.47;51.36;93087.53;5037055;28;20067;-87
2023/05/11 08:00:25;;;;;;;283.40;148.65;;;;;;;18.53;51.66;93089.44;5000599;28;20041;-87
2023/05/11 08:02:51;;;;;;;334.42;177.30;;;;;;;18.48;50.80;93097.22;5023904;28;20120;-89
2023/05/11 08:05:18;;;;;;;239.95;113.75;;;;;;;18.46;50.98;93094.25;5028199;28;20097;-89
2023/05/11 08:07:43;;;;;;;204.18;83.30;;;;;;;18.53;50.65;93094.91;5013350;28;20865;-88
2023/05/11 08:10:09;;;;;;;165.40;75.38;;;;;;;18.42;50.65;93095.81;5014510;28;20056;-87
2023/05/11 08:12:35;;;;;;;165.18;69.10;;;;;;;18.36;50.84;93093.16;5013249;28;20072;-85
2023/05/11 08:15:01;;;;;;;127.78;57.80;;;;;;;18.33;51.09;93093.44;5031958;28;20030;-89
2023/05/11 08:17:27;;;;;;;123.72;54.67;;;;;;;18.33;51.09;93099.66;5007153;28;20129;-88
2023/05/11 08:19:53;;;;;;;161.93;64.13;;;;;;;18.31;50.59;93093.97;5011016;28;20050;-87
2023/05/11 08:22:18;;;;;;;145.23;54.95;;;;;;;18.27;51.23;93088.03;5027402;28;20053;-89
2023/05/11 08:24:44;;;;;;;167.30;58.55;;;;;;;18.29;51.17;93096.47;5025927;28;20042;-90
2023/05/11 08:27:09;;;;;;;141.70;48.38;;;;;;;18.29;51.23;93084.78;4992163;28;20047;-92
2023/05/11 08:29:34;;;;;;;137.25;55.65;;;;;;;18.29;51.43;93090.25;5001805;28;20123;-89
2023/05/11 08:32:06;;;;;;;137.70;53.88;;;;;;;18.32;51.74;93092.72;5023724;28;20606;-90
2023/05/11 08:34:32;;;;;;;102.40;48.53;;;;;;;18.34;51.29;93086.72;5019042;28;20469;-90
2023/05/11 08:37:00;;;;;;;161.73;44.78;;;;;;;18.38;51.08;93087.16;4998083;28;20037;-89
2023/05/11 08:39:34;;;;;;;113.75;44.67;;;;;;;18.31;51.37;93083.03;5028915;28;20291;-90
2023/05/11 08:42:01;;;;;;;134.80;45.28;;;;;;;18.34;51.53;93083.97;5024714;28;20101;-87
2023/05/11 08:44:26;;;;;;;109.15;40.55;;;;;;;18.34;51.34;93078.50;5012024;28;20040;-89
2023/05/11 08:46:52;;;;;;;104.40;39.40;;;;;;;18.35;51.61;93083.47;5016382;28;20120;-87
2023/05/11 08:49:18;;;;;;;240.57;43.05;;;;;;;18.37;51.62;93075.47;5035424;28;20033;-89
2023/05/11 08:51:44;;;;;;;128.05;34.85;;;;;;;18.36;51.96;93078.72;5005860;28;20038;-89
2023/05/11 08:54:09;;;;;;;171.30;39.42;;;;;;;18.28;51.18;93078.59;5007030;28;20465;-89
2023/05/11 08:56:35;;;;;;;78.28;30.20;;;;;;;18.36;51.58;93087.69;4991746;28;20050;-87
2023/05/11 08:59:02;;;;;;;94.40;32.58;;;;;;;18.30;51.45;93086.28;5001785;28;20042;-91
2023/05/11 09:01:29;;;;;;;94.00;33.58;;;;;;;18.30;51.43;93084.28;5005668;28;20571;-91
2023/05/11 09:03:55;;;;;;;88.57;34.83;;;;;;;18.31;51.51;93080.28;5048161;28;20432;-89
2023/05/11 09:06:23;;;;;;;114.00;34.08;;;;;;;18.33;51.88;93079.78;4997455;28;20088;-91
2023/05/11 09:08:48;;;;;;;142.50;40.30;;;;;;;18.29;51.81;93079.31;5039642;28;20037;-91
2023/05/11 09:11:14;;;;;;;138.48;43.28;;;;;;;18.41;51.77;93073.16;5003170;28;20111;-90
2023/05/11 09:13:40;;;;;;;140.65;40.97;;;;;;;18.30;51.70;93083.53;5013242;28;20033;-89
2023/05/11 09:16:05;;;;;;;124.43;37.35;;;;;;;18.28;51.50;93078.59;5010590;28;20037;-88
2023/05/11 09:18:32;;;;;;;117.03;33.92;;;;;;;18.35;51.53;93078.00;4992750;28;20038;-90
2023/05/11 09:20:58;;;;;;;99.30;31.35;;;;;;;18.31;51.77;93083.03;4992630;28;20037;-90
2023/05/11 09:23:25;;;;;;;89.00;29.92;;;;;;;18.26;51.50;93078.34;5017682;28;20041;-91
2023/05/11 09:25:52;;;;;;;86.80;27.63;;;;;;;18.29;51.10;93082.78;5006095;28;20067;-92
2023/05/11 09:28:24;;;;;;;107.25;28.17;;;;;;;18.27;50.88;93079.09;4995464;28;20034;-90
2023/05/11 09:30:49;;;;;;;75.45;24.27;;;;;;;18.24;50.12;93078.13;5036935;28;20044;-88
2023/05/11 09:33:21;;;;;;;84.22;23.73;;;;;;;18.25;50.30;93078.88;4995961;28;20088;-90
2023/05/11 09:35:47;;;;;;;84.50;36.92;;;;;;;18.18;50.05;93074.00;4993504;28;20399;-90
2023/05/11 09:38:14;;;;;;;80.93;28.67;;;;;;;18.14;49.84;93066.09;4988613;28;20044;-92
2023/05/11 09:40:48;;;;;;;75.05;23.08;;;;;;;18.15;49.74;93082.00;4999078;28;20092;-91
2023/05/11 09:43:18;;;;;;;69.18;23.15;;;;;;;18.13;49.76;93073.56;4995887;28;20042;-90
2023/05/11 09:45:45;;;;;;;72.10;21.48;;;;;;;18.13;49.44;93068.09;4984871;28;20083;-91
2023/05/11 09:48:21;;;;;;;60.10;19.23;;;;;;;18.11;49.51;93076.06;4985347;28;20037;-91
2023/05/11 09:50:47;;;;;;;66.03;19.70;;;;;;;18.11;49.91;93062.38;5027890;28;20067;-91
2023/05/11 09:53:13;;;;;;;58.58;20.58;;;;;;;18.09;49.75;93064.16;4985741;28;20038;-89
2023/05/11 09:55:38;;;;;;;53.10;20.35;;;;;;;18.10;49.83;93066.38;5001587;28;20428;-89
2023/05/11 09:58:03;;;;;;;69.65;27.42;;;;;;;18.12;49.69;93069.34;5028693;28;20091;-91
2023/05/11 10:00:30;;;;;;;95.57;39.75;;;;;;;18.13;49.35;93072.81;5017625;28;20099;-89
2023/05/11 10:03:00;;;;;;;90.65;32.25;;;;;;;18.07;49.71;93067.41;5037683;28;20041;-89
2023/05/11 10:05:25;;;;;;;88.63;40.33;;;;;;;18.09;48.90;93061.44;5010792;28;20038;-90
2023/05/11 10:08:01;;;;;;;116.38;50.50;;;;;;;18.01;49.03;93057.78;4987389;28;20060;-90
2023/05/11 10:10:28;;;;;;;99.95;48.10;;;;;;;17.98;49.06;93054.09;5005656;28;20103;-89
2023/05/11 10:12:55;;;;;;;100.18;45.53;;;;;;;18.08;49.20;93065.41;4990772;28;20041;-92
2023/05/11 10:15:24;;;;;;;105.45;48.58;;;;;;;17.97;48.67;93063.53;5015447;28;20098;-90
2023/05/11 10:17:50;;;;;;;97.63;38.10;;;;;;;18.01;48.91;93066.72;4998497;28;20064;-90
2023/05/11 10:20:15;;;;;;;74.05;34.20;;;;;;;18.03;49.04;93061.50;5013870;28;20575;-91
2023/05/11 10:22:41;;;;;;;67.53;28.90;;;;;;;18.08;48.96;93059.94;4993067;28;20044;-91
2023/05/11 10:25:07;;;;;;;293.27;43.17;;;;;;;17.97;48.85;93058.06;4993317;28;20029;-92
2023/05/11 10:27:32;;;;;;;247.93;39.83;;;;;;;17.93;48.84;93065.13;5014788;28;20048;-91
2023/05/11 10:29:58;;;;;;;227.38;36.90;;;;;;;17.96;48.83;93066.81;4997558;28;20065;-91
2023/05/11 10:32:23;;;;;;;137.15;25.70;;;;;;;18.01;48.85;93057.78;4997726;28;20049;-91
2023/05/11 10:34:49;;;;;;;132.60;25.70;;;;;;;17.94;48.90;93064.59;5012923;28;20048;-90
2023/05/11 10:37:15;;;;;;;96.22;22.27;;;;;;;17.90;48.70;93057.94;5005632;28;20042;-91
2023/05/11 10:39:41;;;;;;;64.63;19.77;;;;;;;17.87;49.06;93056.97;5032018;28;20120;-90
2023/05/11 10:42:32;;;;;;;77.15;19.80;;;;;;;17.90;49.02;93055.94;4995046;28;20103;-90
2023/05/11 10:45:09;;;;;;;60.17;20.13;;;;;;;17.93;48.76;93054.91;5018020;28;20764;-91
2023/05/11 10:48:00;;;;;;;79.28;19.95;;;;;;;18.01;49.28;93047.59;5029736;28;20030;-91
2023/05/11 10:50:35;;;;;;;51.92;18.00;;;;;;;18.03;49.73;93044.34;5009171;28;20077;-90
2023/05/11 10:53:28;;;;;;;64.25;20.90;;;;;;;17.96;48.67;93051.16;5019928;28;20061;-90
2023/05/11 10:56:05;;;;;;;67.95;21.35;;;;;;;18.00;48.49;93045.38;5029064;28;20033;-90
2023/05/11 10:59:07;;;;;;;69.65;23.50;;;;;;;17.95;49.06;93044.22;5029038;28;20041;-90
2023/05/11 11:01:42;;;;;;;74.85;24.63;;;;;;;17.97;48.76;93036.19;5029040;28;20049;-91
2023/05/11 11:04:09;;;;;;;68.75;24.88;;;;;;;18.02;49.10;93042.84;5000339;28;20119;-90
2023/05/11 11:06:36;;;;;;;114.32;45.75;;;;;;;18.08;49.73;93040.78;5011012;28;20044;-89
2023/05/11 11:09:04;;;;;;;97.35;31.88;;;;;;;18.07;49.22;93042.78;5002573;28;20131;-90
2023/05/11 11:11:38;;;;;;;104.35;37.00;;;;;;;18.09;49.07;93048.50;5014823;28;20041;-89